Time;durP1;ratioP1;P1;durP2;ratioP2;P2;SDS_P1;SDS_P2;PMS_P1;PMS_P2;Temp;Humidity;BMP_temperature;BMP_pressure;BME280_temperature;BME280_humidity;BME280_pressure;Samples;Min_cycle;Max_cycle;Signal;HPM_P1;HPM_P2
2021/10/18 00:04:01;;;;;;;4.07;1.70;;;19.70;63.70;;;;;;10373497;28;20025;-60
2021/10/18 00:09:03;;;;;;;6.72;2.33;;;19.70;63.90;;;;;;10372927;28;20373;-60
2021/10/18 00:14:04;;;;;;;3.95;1.38;;;19.70;63.80;;;;;;10372168;28;20034;-61
2021/10/18 00:19:06;;;;;;;5.47;1.25;;;19.70;63.90;;;;;;10372135;28;20026;-60
2021/10/18 00:24:06;;;;;;;5.95;1.35;;;19.70;63.90;;;;;;10372266;28;20088;-60
2021/10/18 00:29:07;;;;;;;2.88;1.15;;;19.70;63.80;;;;;;10372671;28;20084;-59
2021/10/18 00:34:08;;;;;;;3.35;1.60;;;19.60;63.80;;;;;;10381230;23;20062;-62
2021/10/18 00:39:08;;;;;;;3.95;1.10;;;19.60;63.80;;;;;;10329801;28;20041;-60
2021/10/18 00:44:09;;;;;;;3.90;1.42;;;19.60;64.10;;;;;;10324940;28;20034;-62
2021/10/18 00:49:10;;;;;;;3.97;1.60;;;19.60;63.90;;;;;;10289631;28;20019;-60
2021/10/18 00:54:10;;;;;;;3.28;1.30;;;19.60;63.80;;;;;;10301366;28;20043;-62
2021/10/18 00:59:11;;;;;;;3.10;1.17;;;19.60;63.60;;;;;;10313129;28;20058;-60
2021/10/18 01:04:12;;;;;;;4.47;1.63;;;19.60;63.80;;;;;;10289316;28;20105;-60
2021/10/18 01:09:13;;;;;;;2.80;1.48;;;19.60;63.80;;;;;;10301522;28;20081;-62
2021/10/18 01:14:13;;;;;;;2.88;1.38;;;19.50;63.50;;;;;;10293161;28;20101;-61
2021/10/18 01:19:16;;;;;;;3.17;1.92;;;19.50;63.40;;;;;;10300095;28;20027;-62
2021/10/18 01:24:17;;;;;;;3.95;0.95;;;19.50;63.30;;;;;;10295662;28;20660;-62
2021/10/18 01:29:18;;;;;;;5.47;1.15;;;19.50;63.10;;;;;;10302827;28;20101;-61
2021/10/18 01:34:18;;;;;;;4.32;1.13;;;19.50;63.30;;;;;;10298651;28;20053;-62
2021/10/18 01:39:19;;;;;;;2.88;1.30;;;19.50;63.30;;;;;;10297143;28;20065;-62
2021/10/18 01:44:19;;;;;;;2.35;1.33;;;19.50;63.20;;;;;;10313086;28;20049;-62
2021/10/18 01:49:23;;;;;;;2.20;1.10;;;19.50;63.20;;;;;;10302282;28;20022;-61
2021/10/18 01:54:23;;;;;;;2.55;1.08;;;19.50;63.30;;;;;;10293535;28;20432;-62
2021/10/18 01:59:24;;;;;;;2.95;1.30;;;19.40;63.10;;;;;;10305028;28;20110;-61
2021/10/18 02:04:25;;;;;;;3.00;0.95;;;19.40;63.00;;;;;;10295108;28;20085;-61
2021/10/18 02:09:25;;;;;;;3.42;0.95;;;19.40;62.80;;;;;;10275501;28;20047;-62
2021/10/18 02:14:26;;;;;;;2.05;1.10;;;19.40;62.90;;;;;;10278043;28;20050;-61
2021/10/18 02:19:26;;;;;;;2.50;1.00;;;19.40;63.00;;;;;;10311353;28;20389;-62
2021/10/18 02:24:27;;;;;;;4.60;1.15;;;19.40;62.90;;;;;;10289761;28;20054;-60
2021/10/18 02:29:27;;;;;;;4.63;1.40;;;19.40;63.00;;;;;;10313429;28;20035;-62
2021/10/18 02:34:28;;;;;;;3.45;1.30;;;19.40;63.00;;;;;;10292065;28;20093;-62
2021/10/18 02:39:28;;;;;;;1.70;0.88;;;19.40;62.90;;;;;;10299046;28;20050;-58
2021/10/18 02:44:29;;;;;;;2.53;1.10;;;19.40;62.80;;;;;;10298287;28;20035;-59
2021/10/18 02:49:30;;;;;;;1.50;0.80;;;19.40;62.70;;;;;;10296427;28;20045;-60
2021/10/18 02:54:30;;;;;;;3.38;0.88;;;19.30;62.70;;;;;;10297500;28;20026;-60
2021/10/18 02:59:31;;;;;;;2.50;1.05;;;19.30;62.60;;;;;;10306211;28;20042;-58
2021/10/18 03:04:32;;;;;;;1.77;1.08;;;19.30;62.70;;;;;;10308772;28;20050;-59
2021/10/18 03:09:33;;;;;;;2.25;1.45;;;19.30;62.60;;;;;;10293391;28;20034;-60
2021/10/18 03:14:33;;;;;;;3.67;1.20;;;19.30;62.70;;;;;;10306813;28;20037;-59
2021/10/18 03:19:34;;;;;;;2.13;1.17;;;19.30;62.50;;;;;;10293088;28;20037;-59
2021/10/18 03:24:34;;;;;;;2.92;1.10;;;19.30;62.60;;;;;;10293074;28;20041;-59
2021/10/18 03:29:35;;;;;;;1.95;1.17;;;19.30;62.50;;;;;;10304707;28;20030;-60
2021/10/18 03:34:35;;;;;;;2.75;1.00;;;19.30;62.50;;;;;;10293726;28;20058;-59
2021/10/18 03:39:36;;;;;;;1.55;0.70;;;19.20;62.50;;;;;;10292280;28;20097;-59
2021/10/18 03:44:36;;;;;;;5.00;1.38;;;19.20;62.50;;;;;;10292155;28;20485;-58
2021/10/18 03:49:37;;;;;;;2.00;0.85;;;19.20;62.40;;;;;;10291513;28;20026;-60
2021/10/18 03:54:38;;;;;;;1.45;1.00;;;19.20;62.40;;;;;;10291829;28;20038;-59
2021/10/18 03:59:38;;;;;;;2.75;0.93;;;19.20;62.20;;;;;;10291153;28;20031;-58
2021/10/18 04:04:39;;;;;;;1.98;0.60;;;19.20;62.40;;;;;;10304613;28;20409;-60
2021/10/18 04:09:40;;;;;;;1.92;1.00;;;19.10;62.40;;;;;;10291109;28;20023;-60
2021/10/18 04:14:40;;;;;;;2.95;0.93;;;19.20;62.40;;;;;;10294796;28;20038;-60
2021/10/18 04:19:41;;;;;;;2.25;0.98;;;19.20;61.70;;;;;;10312119;28;20023;-60
2021/10/18 04:24:41;;;;;;;1.88;0.85;;;19.30;61.80;;;;;;10291827;28;20027;-59
2021/10/18 04:29:42;;;;;;;2.83;1.08;;;19.30;62.10;;;;;;10290608;28;20031;-58
2021/10/18 04:34:43;;;;;;;3.75;1.05;;;19.40;62.10;;;;;;10291247;28;20034;-59
2021/10/18 04:39:43;;;;;;;2.67;0.73;;;19.50;62.00;;;;;;10290211;28;20039;-59
2021/10/18 04:44:44;;;;;;;1.50;0.70;;;19.60;61.70;;;;;;10289996;28;20033;-59
2021/10/18 04:49:44;;;;;;;7.53;0.82;;;19.60;61.40;;;;;;10290258;28;20400;-59
2021/10/18 04:54:45;;;;;;;3.40;0.70;;;19.70;60.80;;;;;;10289770;28;20110;-60
2021/10/18 04:59:46;;;;;;;3.28;1.17;;;19.80;61.10;;;;;;10289620;28;20085;-58
2021/10/18 05:04:46;;;;;;;2.75;1.10;;;19.80;60.90;;;;;;10289364;28;20023;-60
2021/10/18 05:09:47;;;;;;;1.98;0.50;;;19.90;60.70;;;;;;10288509;28;20733;-60
2021/10/18 05:14:47;;;;;;;3.95;1.17;;;19.90;60.70;;;;;;10290391;28;20106;-60
2021/10/18 05:19:49;;;;;;;3.50;0.95;;;19.90;60.60;;;;;;10289185;28;20038;-59
2021/10/18 05:24:52;;;;;;;5.25;1.10;;;19.90;60.40;;;;;;10292244;28;20492;-61
2021/10/18 05:29:52;;;;;;;3.88;1.00;;;20.00;60.40;;;;;;10288985;28;20151;-59
2021/10/18 05:34:53;;;;;;;3.45;0.80;;;20.00;60.40;;;;;;10288634;28;20095;-62
2021/10/18 05:39:53;;;;;;;3.05;1.00;;;20.00;60.30;;;;;;10288414;28;20375;-61
2021/10/18 05:44:54;;;;;;;1.63;0.95;;;20.00;60.20;;;;;;10288852;28;20037;-61
2021/10/18 05:49:55;;;;;;;2.40;0.80;;;20.00;60.20;;;;;;10288690;28;20031;-60
2021/10/18 05:54:56;;;;;;;2.53;0.75;;;20.00;60.10;;;;;;10292596;28;20551;-61
2021/10/18 05:59:56;;;;;;;2.53;0.85;;;20.00;60.00;;;;;;10299284;28;20034;-58
2021/10/18 06:04:56;;;;;;;3.60;1.10;;;20.10;59.90;;;;;;10303494;28;20030;-60
2021/10/18 06:09:57;;;;;;;3.92;1.20;;;20.10;59.90;;;;;;10303569;28;20027;-58
2021/10/18 06:14:58;;;;;;;9.07;1.63;;;20.10;60.10;;;;;;10303094;28;20037;-59
2021/10/18 06:19:58;;;;;;;14.40;2.08;;;20.10;60.20;;;;;;10295632;28;20035;-61
2021/10/18 06:24:59;;;;;;;8.82;1.70;;;20.10;60.00;;;;;;10310954;28;20027;-61
2021/10/18 06:29:59;;;;;;;15.10;2.85;;;20.10;60.10;;;;;;10314190;28;20027;-62
2021/10/18 06:35:00;;;;;;;16.65;3.70;;;20.10;60.20;;;;;;10300322;28;20041;-59
2021/10/18 06:40:00;;;;;;;21.25;4.78;;;20.10;60.20;;;;;;10318944;23;20027;-62
2021/10/18 06:45:01;;;;;;;26.73;4.72;;;20.10;60.20;;;;;;10286491;28;20383;-59
2021/10/18 06:50:03;;;;;;;21.95;4.78;;;20.10;59.40;;;;;;10278260;28;20039;-61
2021/10/18 06:55:05;;;;;;;14.82;4.13;;;20.10;60.10;;;;;;10289501;28;20015;-61
2021/10/18 07:00:07;;;;;;;18.17;4.45;;;20.10;60.00;;;;;;10290508;28;20038;-61
2021/10/18 07:05:08;;;;;;;21.60;4.07;;;20.10;60.00;;;;;;10292258;28;20481;-61
2021/10/18 07:10:08;;;;;;;12.77;3.65;;;20.20;60.00;;;;;;10292265;28;20015;-61
2021/10/18 07:15:09;;;;;;;15.88;4.50;;;20.10;60.00;;;;;;10292556;28;20027;-58
2021/10/18 07:20:10;;;;;;;14.07;2.92;;;20.10;60.00;;;;;;10292178;28;20038;-60
2021/10/18 07:25:13;;;;;;;14.93;3.63;;;20.10;60.00;;;;;;10292218;28;20035;-61
2021/10/18 07:30:14;;;;;;;10.25;3.35;;;20.10;60.00;;;;;;10291661;28;20048;-59
2021/10/18 07:35:17;;;;;;;12.02;3.67;;;20.10;60.00;;;;;;10291830;28;20085;-61
2021/10/18 07:40:17;;;;;;;12.02;3.28;;;20.10;59.80;;;;;;10296363;28;20030;-62
2021/10/18 07:45:18;;;;;;;8.30;3.10;;;20.10;59.50;;;;;;10291866;28;20421;-62
2021/10/18 07:50:19;;;;;;;9.18;2.92;;;20.10;59.10;;;;;;10291695;28;20288;-61
2021/10/18 07:55:20;;;;;;;7.53;2.63;;;20.10;59.60;;;;;;10288684;28;20031;-61
2021/10/18 08:00:22;;;;;;;12.75;3.65;;;20.10;59.70;;;;;;10289540;28;20042;-61
2021/10/18 08:05:24;;;;;;;13.25;2.85;;;20.00;59.80;;;;;;10270517;28;20043;-61
2021/10/18 08:10:26;;;;;;;4.90;1.88;;;20.00;60.60;;;;;;10278275;28;20022;-61
2021/10/18 08:15:30;;;;;;;11.68;2.60;;;20.00;60.20;;;;;;10290307;28;20035;-61
2021/10/18 08:20:31;;;;;;;17.00;2.53;;;19.90;60.20;;;;;;10288862;28;20114;-61
2021/10/18 08:25:31;;;;;;;10.25;2.20;;;19.90;60.20;;;;;;10289772;28;20125;-59
2021/10/18 08:30:32;;;;;;;6.80;1.92;;;19.90;60.30;;;;;;10288174;28;20071;-61
2021/10/18 08:35:33;;;;;;;10.40;2.30;;;19.90;60.20;;;;;;10289497;28;20031;-61
2021/10/18 08:40:38;;;;;;;11.63;2.35;;;19.90;60.30;;;;;;10288522;28;20113;-61
2021/10/18 08:45:40;;;;;;;7.00;1.73;;;19.80;60.20;;;;;;10280523;28;20022;-61
2021/10/18 08:50:40;;;;;;;6.28;2.53;;;19.80;60.10;;;;;;10287848;28;20492;-61
2021/10/18 08:55:41;;;;;;;10.02;1.65;;;19.80;60.20;;;;;;10288669;28;20038;-62
2021/10/18 09:00:48;;;;;;;9.57;2.55;;;19.80;60.10;;;;;;10287266;28;20035;-61
2021/10/18 09:05:50;;;;;;;4.90;1.90;;;19.80;60.00;;;;;;10288208;28;20050;-62
2021/10/18 09:11:10;;;;;;;6.78;3.28;;;19.70;60.00;;;;;;10285507;28;20054;-63
2021/10/18 09:16:33;;;;;;;6.45;2.08;;;19.70;60.40;;;;;;10287478;28;20038;-63
2021/10/18 09:21:39;;;;;;;5.88;1.83;;;19.70;59.90;;;;;;10273117;28;20037;-63
2021/10/18 09:26:41;;;;;;;5.70;1.92;;;19.70;60.00;;;;;;10287305;28;20481;-62
2021/10/18 09:31:58;;;;;;;6.05;2.15;;;19.70;59.90;;;;;;10285911;28;20110;-63
2021/10/18 09:37:10;;;;;;;8.25;2.53;;;19.70;60.00;;;;;;10286976;28;20105;-61
2021/10/18 09:42:13;;;;;;;4.10;1.73;;;19.70;60.40;;;;;;10285356;28;20058;-60
2021/10/18 10:52:11;;;;;;;4.32;1.60;;;19.90;60.10;;;;;;10284229;28;20019;-64
2021/10/18 10:57:12;;;;;;;8.80;1.95;;;19.90;60.10;;;;;;10284357;28;20098;-61
2021/10/18 11:02:26;;;;;;;4.45;1.23;;;19.80;60.10;;;;;;10294154;28;20035;-64
2021/10/18 11:07:33;;;;;;;5.28;1.40;;;19.90;60.10;;;;;;10285745;28;20030;-62
2021/10/18 11:12:37;;;;;;;4.50;1.40;;;19.90;60.10;;;;;;10277466;28;20027;-61
2021/10/18 11:17:40;;;;;;;3.17;1.15;;;19.90;60.10;;;;;;10289039;28;20069;-57
2021/10/18 11:22:52;;;;;;;7.60;1.50;;;19.90;60.00;;;;;;10283294;28;20030;-62
2021/10/18 11:28:02;;;;;;;6.40;1.38;;;19.90;59.90;;;;;;10293504;28;20034;-62
2021/10/18 11:33:09;;;;;;;4.07;1.45;;;19.90;60.00;;;;;;10288600;28;20027;-65
2021/10/18 11:38:12;;;;;;;6.32;2.67;;;19.80;60.00;;;;;;10291252;28;20510;-63
2021/10/18 11:43:19;;;;;;;5.80;1.20;;;19.80;60.00;;;;;;10288298;28;20054;-63
2021/10/18 11:48:22;;;;;;;4.47;1.50;;;19.90;60.10;;;;;;10290737;28;20034;-63
2021/10/18 11:53:31;;;;;;;4.88;1.23;;;19.80;60.00;;;;;;10290248;28;20039;-63
2021/10/18 11:58:33;;;;;;;;;;;19.80;59.80;;;;;;10292371;28;20050;-64
2021/10/18 12:03:35;;;;;;;4.75;1.23;;;19.80;59.70;;;;;;10289243;28;19937;-63
2021/10/18 12:08:38;;;;;;;3.58;0.80;;;19.80;59.70;;;;;;10291494;28;20027;-62
2021/10/18 12:13:40;;;;;;;2.75;1.00;;;19.80;59.50;;;;;;10271297;28;20035;-63
2021/10/18 12:18:47;;;;;;;3.78;1.15;;;19.80;59.50;;;;;;10283477;28;20023;-63
2021/10/18 12:24:00;;;;;;;4.30;1.50;;;19.80;59.50;;;;;;10287981;28;20038;-63
2021/10/18 12:29:09;;;;;;;2.67;1.42;;;19.80;59.50;;;;;;10290291;28;20042;-63
2021/10/18 12:34:30;;;;;;;5.63;1.35;;;19.70;59.60;;;;;;10288539;28;20107;-63
2021/10/18 12:39:42;;;;;;;3.72;0.80;;;19.70;59.60;;;;;;10284890;28;20046;-62
2021/10/18 12:44:45;;;;;;;4.20;1.30;;;19.70;59.70;;;;;;10285989;28;20034;-62
2021/10/18 12:49:54;;;;;;;8.20;1.38;;;19.70;59.70;;;;;;10288859;28;20057;-62
2021/10/18 12:54:55;;;;;;;8.87;2.97;;;19.60;59.80;;;;;;10315222;23;20042;-60
2021/10/18 13:00:05;;;;;;;13.18;1.60;;;19.60;59.90;;;;;;10297671;28;20669;-62
2021/10/18 13:05:05;;;;;;;5.03;1.85;;;19.60;60.00;;;;;;10336754;28;20057;-62
2021/10/18 13:10:07;;;;;;;9.35;1.48;;;19.60;59.80;;;;;;10369066;28;20061;-62
2021/10/18 13:15:10;;;;;;;10.88;1.42;;;19.60;59.90;;;;;;10330512;28;20428;-62
2021/10/18 13:20:14;;;;;;;9.55;1.33;;;19.50;60.00;;;;;;10330186;28;20531;-61
2021/10/18 13:25:15;;;;;;;7.53;1.65;;;19.60;60.00;;;;;;10329239;28;20065;-62
2021/10/18 13:30:17;;;;;;;6.18;1.48;;;19.60;59.90;;;;;;10353237;28;20122;-63
2021/10/18 13:35:18;;;;;;;4.35;1.10;;;19.60;59.90;;;;;;10346191;28;20041;-64
2021/10/18 13:40:22;;;;;;;7.95;1.77;;;19.60;60.10;;;;;;10351799;28;20068;-60
2021/10/18 13:45:24;;;;;;;7.28;1.48;;;19.60;60.30;;;;;;10342093;28;20061;-62
2021/10/18 13:50:24;;;;;;;8.95;2.28;;;19.60;60.50;;;;;;10340855;28;20058;-62
2021/10/18 13:55:25;;;;;;;27.35;3.47;;;19.60;60.60;;;;;;10340759;28;20050;-60
2021/10/18 14:00:26;;;;;;;15.27;2.10;;;19.60;60.80;;;;;;10346287;28;20087;-61
2021/10/18 14:05:27;;;;;;;5.05;1.38;;;19.60;60.70;;;;;;10349794;28;20038;-61
2021/10/18 14:10:27;;;;;;;8.18;1.15;;;19.60;60.00;;;;;;10337589;28;20037;-58
2021/10/18 14:15:28;;;;;;;16.13;2.92;;;19.60;60.40;;;;;;10351257;28;20038;-59
2021/10/18 14:20:28;;;;;;;5.53;1.40;;;19.60;60.10;;;;;;10364447;28;20022;-59
2021/10/18 14:25:31;;;;;;;10.02;1.30;;;19.60;60.30;;;;;;10337892;28;20034;-60
2021/10/18 14:30:33;;;;;;;6.22;1.60;;;19.70;60.30;;;;;;10337777;28;20113;-61
2021/10/18 14:35:35;;;;;;;7.47;1.50;;;19.80;60.20;;;;;;10338649;28;20022;-62
2021/10/18 14:40:36;;;;;;;8.10;1.00;;;19.90;60.00;;;;;;10343309;28;20100;-59
2021/10/18 14:45:36;;;;;;;9.10;2.25;;;20.00;59.80;;;;;;10359558;28;20130;-62
2021/10/18 14:50:37;;;;;;;9.98;1.33;;;20.10;59.60;;;;;;10345859;28;20487;-63
2021/10/18 14:55:39;;;;;;;12.70;1.70;;;20.30;59.40;;;;;;10360229;28;20408;-62
2021/10/18 15:00:40;;;;;;;7.88;1.80;;;20.30;59.30;;;;;;10354407;28;20439;-63
2021/10/18 15:05:41;;;;;;;5.22;1.75;;;20.40;59.30;;;;;;10346716;28;20027;-59
2021/10/18 15:10:41;;;;;;;5.60;1.08;;;20.40;59.20;;;;;;10345604;28;20019;-60
2021/10/18 15:15:42;;;;;;;6.55;1.58;;;20.60;59.10;;;;;;10349510;28;20124;-59
2021/10/18 15:20:44;;;;;;;4.28;1.02;;;20.60;59.00;;;;;;10341058;28;20122;-58
2021/10/18 15:25:45;;;;;;;6.70;1.63;;;20.60;59.00;;;;;;10351815;28;20546;-60
2021/10/18 15:30:45;;;;;;;3.90;0.93;;;20.60;59.00;;;;;;10344551;28;20097;-58
2021/10/18 15:35:46;;;;;;;5.43;1.27;;;20.60;59.00;;;;;;10358245;28;20026;-62
2021/10/18 15:40:46;;;;;;;10.98;1.83;;;20.70;59.00;;;;;;10348270;28;20044;-62
2021/10/18 15:45:54;;;;;;;3.10;0.68;;;20.60;58.90;;;;;;10343934;28;20129;-61
2021/10/18 15:50:54;;;;;;;5.30;0.75;;;20.70;58.80;;;;;;10352595;28;20029;-62
2021/10/18 15:55:55;;;;;;;12.10;6.82;;;20.70;58.90;;;;;;10352843;28;20121;-58
2021/10/18 16:00:56;;;;;;;9.80;4.60;;;20.70;59.50;;;;;;10350091;28;20022;-60
2021/10/18 16:05:56;;;;;;;6.75;3.88;;;20.60;58.90;;;;;;10345347;28;20102;-61
2021/10/18 16:10:57;;;;;;;13.40;4.07;;;20.60;58.50;;;;;;10337413;28;20061;-59
2021/10/18 16:15:57;;;;;;;8.98;4.13;;;20.60;58.50;;;;;;10359174;28;20112;-61
2021/10/18 16:20:58;;;;;;;6.80;4.03;;;20.60;58.30;;;;;;10358841;28;20109;-58
2021/10/18 16:25:58;;;;;;;7.13;3.35;;;20.60;58.00;;;;;;10349406;28;20113;-61
2021/10/18 16:31:00;;;;;;;8.55;3.25;;;20.60;57.40;;;;;;10336667;28;20030;-60
2021/10/18 16:36:01;;;;;;;7.47;3.45;;;20.60;57.40;;;;;;10343287;28;20030;-60
2021/10/18 16:41:01;;;;;;;9.68;3.92;;;20.60;57.40;;;;;;10330822;28;20106;-60
2021/10/18 16:46:02;;;;;;;5.38;3.38;;;20.60;57.30;;;;;;10331271;28;20031;-61
2021/10/18 16:51:03;;;;;;;7.55;3.10;;;20.60;56.90;;;;;;10347503;28;20053;-59
2021/10/18 16:56:04;;;;;;;7.25;3.42;;;20.60;57.60;;;;;;10330255;28;20030;-61
2021/10/18 17:01:04;;;;;;;15.07;5.22;;;20.60;57.10;;;;;;10331067;28;20034;-59
2021/10/18 17:06:05;;;;;;;5.88;3.55;;;20.60;57.30;;;;;;10328851;28;20053;-58
2021/10/18 17:11:06;;;;;;;5.70;3.83;;;20.60;57.40;;;;;;10367170;28;20030;-57
2021/10/18 17:16:06;;;;;;;7.00;4.20;;;20.60;57.40;;;;;;10369937;28;20049;-58
2021/10/18 17:21:07;;;;;;;7.13;4.50;;;20.60;57.50;;;;;;10369499;28;20377;-58
2021/10/18 17:26:08;;;;;;;6.03;3.53;;;20.60;57.60;;;;;;10344792;28;20048;-60
2021/10/18 17:31:09;;;;;;;8.90;4.18;;;20.70;57.80;;;;;;10328731;28;20093;-60
2021/10/18 17:36:09;;;;;;;5.78;4.43;;;20.60;57.90;;;;;;10328936;28;20042;-59
2021/10/18 17:41:10;;;;;;;9.07;5.07;;;20.60;58.00;;;;;;10328252;28;20185;-61
2021/10/18 17:46:11;;;;;;;21.98;6.97;;;20.70;58.20;;;;;;10328099;28;20537;-58
2021/10/18 17:51:12;;;;;;;27.13;8.85;;;20.70;58.20;;;;;;10350150;28;20083;-59
2021/10/18 17:56:13;;;;;;;21.20;6.57;;;20.70;58.30;;;;;;10376455;28;20050;-59
2021/10/18 18:01:14;;;;;;;14.05;6.57;;;20.70;58.40;;;;;;10405658;28;20117;-61
2021/10/18 18:06:15;;;;;;;20.00;6.82;;;20.70;58.50;;;;;;10408133;28;20116;-60
2021/10/18 18:11:16;;;;;;;14.63;5.38;;;20.70;58.60;;;;;;10408337;28;20073;-61
2021/10/18 18:16:16;;;;;;;16.92;6.05;;;20.70;58.70;;;;;;10407209;28;20532;-62
2021/10/18 18:21:17;;;;;;;70.55;27.33;;;20.70;58.70;;;;;;10408114;28;20033;-59
2021/10/18 18:26:20;;;;;;;62.55;22.38;;;20.70;58.10;;;;;;10408386;28;20064;-61
2021/10/18 18:31:21;;;;;;;56.65;24.55;;;20.70;58.40;;;;;;10406156;28;20063;-58
2021/10/18 18:36:22;;;;;;;53.00;23.67;;;20.70;58.40;;;;;;10408323;28;20034;-59
2021/10/18 18:41:22;;;;;;;42.70;20.15;;;20.70;58.60;;;;;;10407955;28;20026;-60
2021/10/18 18:46:23;;;;;;;39.70;15.75;;;20.60;58.50;;;;;;10408512;28;20077;-61
2021/10/18 18:51:23;;;;;;;38.28;15.70;;;20.70;58.50;;;;;;10377123;28;20113;-60
2021/10/18 18:56:24;;;;;;;40.30;16.40;;;20.60;58.60;;;;;;10375338;28;20034;-60
2021/10/18 19:01:24;;;;;;;38.00;13.43;;;20.60;58.60;;;;;;10376551;28;20034;-60
2021/10/18 19:06:26;;;;;;;24.48;13.27;;;20.60;58.50;;;;;;10396453;28;20034;-59
2021/10/18 19:11:26;;;;;;;29.55;11.90;;;20.60;58.60;;;;;;10383506;28;20034;-62
2021/10/18 19:16:27;;;;;;;23.13;11.13;;;20.60;58.60;;;;;;10384819;28;20033;-58
2021/10/18 19:21:28;;;;;;;22.90;11.07;;;20.60;58.50;;;;;;10398273;28;20034;-59
2021/10/18 19:26:28;;;;;;;19.77;10.63;;;20.60;58.50;;;;;;10401447;28;20033;-59
2021/10/18 19:31:29;;;;;;;18.77;9.70;;;20.60;58.60;;;;;;10406708;28;20053;-57
2021/10/18 19:36:30;;;;;;;22.38;9.48;;;20.60;58.60;;;;;;10400330;28;20029;-60
2021/10/18 19:41:30;;;;;;;27.63;9.05;;;20.60;58.60;;;;;;10412902;28;20080;-61
2021/10/18 19:46:32;;;;;;;25.40;8.30;;;20.60;59.20;;;;;;10413817;28;20057;-59
2021/10/18 19:51:32;;;;;;;26.55;8.82;;;20.70;59.50;;;;;;10413396;28;20097;-60
2021/10/18 19:56:33;;;;;;;13.55;7.45;;;20.70;61.20;;;;;;10401091;28;20045;-61
2021/10/18 20:01:34;;;;;;;19.70;8.15;;;20.70;61.60;;;;;;10410305;28;20033;-61
2021/10/18 20:06:35;;;;;;;18.77;7.97;;;20.70;61.30;;;;;;10404606;28;20032;-59
2021/10/18 20:11:35;;;;;;;15.35;7.00;;;20.70;61.50;;;;;;10398039;28;20503;-60
2021/10/18 20:16:36;;;;;;;16.17;7.28;;;20.80;61.30;;;;;;10384921;28;20663;-59
2021/10/18 20:21:37;;;;;;;13.98;6.60;;;20.70;60.90;;;;;;10404498;28;20130;-61
2021/10/18 20:26:38;;;;;;;19.52;6.53;;;20.80;60.80;;;;;;10400854;28;20131;-61
2021/10/18 20:31:40;;;;;;;18.73;5.88;;;20.70;60.80;;;;;;10409327;28;20028;-60
2021/10/18 20:36:41;;;;;;;16.63;5.57;;;20.70;60.60;;;;;;10398449;28;20057;-62
2021/10/18 20:41:42;;;;;;;15.73;6.50;;;20.80;60.50;;;;;;10407909;28;20068;-61
2021/10/18 20:46:42;;;;;;;11.20;5.50;;;20.70;60.30;;;;;;10392676;28;20034;-61
2021/10/18 20:51:43;;;;;;;14.40;5.20;;;20.70;60.20;;;;;;10404968;28;20352;-61
2021/10/18 20:56:44;;;;;;;11.48;5.72;;;20.70;60.10;;;;;;10396950;28;20034;-61
2021/10/18 21:01:44;;;;;;;10.90;5.82;;;20.70;60.00;;;;;;10410251;28;20025;-60
2021/10/18 21:06:45;;;;;;;8.90;5.57;;;20.70;59.80;;;;;;10390621;28;20033;-57
2021/10/18 21:11:45;;;;;;;12.18;5.10;;;20.70;59.60;;;;;;10382435;28;20805;-61
2021/10/18 21:16:46;;;;;;;13.23;5.10;;;20.60;59.50;;;;;;10403294;28;20017;-60
2021/10/18 21:21:47;;;;;;;12.40;4.05;;;20.60;59.50;;;;;;10407441;28;20037;-60
2021/10/18 21:26:48;;;;;;;12.88;6.15;;;20.60;59.40;;;;;;10380966;28;20030;-61
2021/10/18 21:31:48;;;;;;;10.18;4.90;;;20.60;59.30;;;;;;10373733;28;20018;-63
2021/10/18 21:36:51;;;;;;;9.05;4.28;;;20.60;59.40;;;;;;10383960;28;20443;-61
2021/10/18 21:41:51;;;;;;;12.50;5.22;;;20.60;59.20;;;;;;10371835;28;20545;-60
2021/10/18 21:46:52;;;;;;;16.35;4.95;;;20.60;58.90;;;;;;10382544;28;20079;-60
2021/10/18 21:51:52;;;;;;;8.52;4.10;;;20.60;59.00;;;;;;10371735;28;20041;-61
2021/10/18 21:56:53;;;;;;;10.80;4.45;;;20.60;58.80;;;;;;10378160;28;20048;-61
2021/10/18 22:01:54;;;;;;;9.60;3.20;;;20.60;59.10;;;;;;10377515;28;20131;-60
2021/10/18 22:06:54;;;;;;;7.20;3.97;;;20.60;59.00;;;;;;10369792;28;20152;-60
2021/10/18 22:11:55;;;;;;;7.28;2.90;;;20.50;59.60;;;;;;10380639;28;20338;-61
2021/10/18 22:17:00;;;;;;;6.15;3.38;;;20.50;59.50;;;;;;10408768;28;20048;-61
2021/10/18 22:22:03;;;;;;;11.48;4.82;;;20.50;59.30;;;;;;10408560;28;20014;-61
2021/10/18 22:27:03;;;;;;;8.70;3.47;;;20.40;59.00;;;;;;10408043;28;20383;-61
2021/10/18 22:32:04;;;;;;;9.32;3.53;;;20.30;59.30;;;;;;10401887;28;20089;-61
2021/10/18 22:37:05;;;;;;;10.43;4.43;;;20.30;59.30;;;;;;10408472;28;20014;-61
2021/10/18 22:42:06;;;;;;;12.10;5.53;;;20.30;59.40;;;;;;10408166;28;20025;-58
2021/10/18 22:47:07;;;;;;;14.77;4.90;;;20.20;59.20;;;;;;10408619;28;20030;-61
2021/10/18 22:52:07;;;;;;;8.02;4.80;;;20.10;59.10;;;;;;10408063;28;20033;-59
2021/10/18 22:57:08;;;;;;;6.93;4.45;;;20.10;59.40;;;;;;10407945;28;20067;-59
2021/10/18 23:02:08;;;;;;;7.32;5.07;;;20.10;59.00;;;;;;10402229;28;20029;-61
2021/10/18 23:07:09;;;;;;;8.43;5.43;;;20.10;59.10;;;;;;10408955;28;20096;-62
2021/10/18 23:12:10;;;;;;;11.95;5.03;;;20.00;59.20;;;;;;10415044;28;20021;-61
2021/10/18 23:17:10;;;;;;;10.63;5.10;;;20.00;59.30;;;;;;10414936;28;20480;-61
2021/10/18 23:22:11;;;;;;;8.07;6.07;;;20.00;59.20;;;;;;10414815;28;20095;-60
2021/10/18 23:27:17;;;;;;;8.95;5.00;;;20.00;59.00;;;;;;10414522;28;20029;-61
2021/10/18 23:32:17;;;;;;;6.22;4.13;;;20.00;58.90;;;;;;10414115;28;20029;-60
2021/10/18 23:37:18;;;;;;;9.90;5.35;;;19.90;59.20;;;;;;10414405;28;20029;-60
2021/10/18 23:42:19;;;;;;;6.85;3.75;;;19.90;59.10;;;;;;10414643;28;20030;-61
2021/10/18 23:47:20;;;;;;;6.50;3.70;;;19.90;59.50;;;;;;10413245;28;20034;-58
2021/10/18 23:52:20;;;;;;;7.97;4.20;;;19.80;59.60;;;;;;10414043;28;20447;-59
2021/10/18 23:57:21;;;;;;;8.40;4.03;;;19.80;59.60;;;;;;10413884;28;20061;-59
